Macomb, IL (61455)

3:17 PM CDT on August 24, 2016 (GMT -0500)
Tillman Hall - WIU Geography | | Change Station
Active Advisory: Flash Flood Watch

Elev 712 ft 40.46 °N, 90.68 °W | Updated 2 minutes ago

Clear
Clear
83.8 °F
Feels Like 90 °F
N
12.0
Wind Variable Wind from SW
Gusts 17.0 mph

Today
High -- | Low -- °F
--% Chance of Precip.
Yesterday
High -- | Low -- °F
Precip. -- in
Pressure 30.00 in
Visibility 10.0 miles
Clouds Clear
Heat Index 90 °F
Dew Point 72 °F
Humidity 69%
Rainfall 0.02 in
Snow Depth Not available.
6:22 AM 7:46 PM
Waning Gibbous, 54% visible
METAR KMQB 241955Z AUTO 26007KT 10SM CLR 29/22 A3000 RMK AO2 T02850219
Pressure 30.00 in
Visibility 10.0 miles
Clouds Clear
Heat Index 90 °F
Dew Point 72 °F
Humidity 69%
Rainfall 0.02 in
Snow Depth Not available.
6:22 AM 7:46 PM
Waning Gibbous, 54% visible
METAR KMQB 241955Z AUTO 26007KT 10SM CLR 29/22 A3000 RMK AO2 T02850219

10-Day Weather Forecast

Almanac

Astronomy

Aug. 24, 2016 Rise Set
Actual Time
Civil Twilight
Nautical Twilight
Astronomical Twilight
Moon
Length of Visible Light
Length of Day
Tomorrow will be .
, % of the Moon is Illuminated

Today's Extremes

State Highs State Lows

Community

WunderPhotos

Upload Photos

1,934,699 photos uploaded!

WunderBlog® & News

Nearby

Air Quality

  Air Quality AQ Index Pollutant
Not available.

Snow Depth

Station Depth Elevation

Earthquake Activity

City Distance Mag. Time & Date
Minimum magnitude displayed is 2.5.

Coastal Water Temperatures

Place Temperature

Stations

Nearby Weather Stations

Station Location Temp. Windchill Dew Point Humidity Wind Precip. Elev Updated Type
                   

Watches & Warnings

Flash Flood Watch
Issued: 3:10 PM CDT Aug. 24, 2016 – National Weather Service

... Flash Flood Watch remains in effect from 7 PM CDT this evening
through Thursday morning...

The Flash Flood Watch continues for

* portions of Illinois... Iowa and northeast Missouri... including
the following areas... in Illinois... Bureau... Hancock...
Henderson... Henry IL... McDonough... Mercer... Putnam... Rock
Island... Warren and Whiteside. In Iowa... Cedar... Des Moines...
Henry IA... Jefferson... Johnson... Keokuk... Lee... Louisa...
Muscatine... Scott... Van Buren and Washington. In northeast
Missouri... Clark and Scotland.

* From 7 PM CDT this evening through Thursday morning

* the combination of locally heavy rainfall earlier this morning
acting as a primer... and more thunderstorms developing by
tonight with heavy rainfall of 1 to 4 inches possible... may
lead to flash flooding.

* Flash flooding is possible along creeks... low lying areas...
and urban areas tonight where heavy rainfall occurs. Water may
also cover roads along with rapid rises on local streams.

Precautionary/preparedness actions...

A Flash Flood Watch means that flash flooding is possible.
Monitor forecasts and take action if flash flood warnings are
issued or flash flooding develops.



Ervin